Flight Track Log - Related Links

Times and Time Zones

All times are in EDT time to prevent confusion due to time zone crossing. See the WJA108 flight status page for this flight to view local times or setup timezone preferences in your user account.

Time Position Orientation Groundspeed Altitude Reporting Facility
EDT Latitude Longitude Course Direction KTS MPH feet Rate Location/Type
Sun 11:18:18 AM 49.1667 -123.1333 55° Northeast 160 184 1,500  Level Vancouver Center
Sun 11:23:18 AM 49.3667 -122.7000 38° Northeast 350 403 15,200 2,733 Climbing Vancouver Center
Sun 11:24:18 AM 49.4500 -122.6000 49° Northeast 360 414 17,900 2,750 Climbing Vancouver Center
Sun 11:25:18 AM 49.5167 -122.4833 33° Northeast 380 437 20,700 2,900 Climbing Vancouver Center
Sun 11:26:18 AM 49.6167 -122.3833 52° Northeast 400 460 23,700 2,850 Climbing Vancouver Center
Sun 11:27:18 AM 49.6833 -122.2500 41° Northeast 410 472 26,400 2,600 Climbing Vancouver Center
Sun 11:28:18 AM 49.7833 -122.1167 38° Northeast 420 483 28,900 2,300 Climbing Vancouver Center
Sun 11:29:18 AM 49.8667 -122.0167 52° Northeast 420 483 31,000 2,000 Climbing Vancouver Center
Sun 11:30:18 AM 49.9333 -121.8833 41° Northeast 430 495 32,900 2,050 Climbing Vancouver Center
Sun 11:31:18 AM 50.0333 -121.7500 46° Northeast 430 495 35,100 1,950 Climbing Vancouver Center
Sun 11:32:18 AM 50.1167 -121.6167 42° Northeast 430 495 36,800 1,650 Climbing Vancouver Center
Sun 11:33:18 AM 50.2000 -121.5000 49° Northeast 420 483 38,400 1,200 Climbing Vancouver Center
Sun 11:34:18 AM 50.2833 -121.3500 52° Northeast 430 495 39,200 750 Climbing Vancouver Center
Sun 11:35:18 AM 50.3500 -121.2167 62° Northeast 440 506 39,900 800 Climbing Vancouver Center
Sun 11:36:18 AM 50.4167 -121.0167 52° Northeast 440 506 40,800 550 Climbing Vancouver Center
Sun 11:37:18 AM 50.4833 -120.8833 52° Northeast 450 518 41,000 100 Climbing Vancouver Center
Sun 11:38:18 AM 50.5667 -120.7167 49° Northeast 450 518 41,000  Level Vancouver Center
Sun 11:39:18 AM 50.6500 -120.5667 65° Northeast 450 518 41,000  Level Vancouver Center
Sun 11:40:18 AM 50.7000 -120.4000 52° Northeast 450 518 41,000  Level Vancouver Center
Sun 11:41:18 AM 50.7833 -120.2333 52° Northeast 440 506 41,000  Level Vancouver Center
Sun 11:42:18 AM 50.8500 -120.1000 56° Northeast 440 506 41,000  Level Vancouver Center
Sun 11:43:18 AM 50.9333 -119.9000 59° Northeast 440 506 41,000  Level Vancouver Center
Sun 11:44:18 AM 50.9833 -119.7667 51° Northeast 440 506 41,000  Level Vancouver Center
Sun 11:45:18 AM 51.0667 -119.6000 51° Northeast 440 506 41,000  Level Vancouver Center
Sun 11:46:18 AM 51.1500 -119.4333 59° Northeast 440 506 41,000  Level Vancouver Center
Sun 11:47:18 AM 51.2000 -119.3000 56° Northeast 440 506 41,000  Level Vancouver Center
Sun 11:48:18 AM 51.2833 -119.1000 62° Northeast 450 518 41,000  Level Vancouver Center
Sun 11:49:18 AM 51.3333 -118.9500 51° Northeast 450 518 41,000  Level Vancouver Center
Sun 11:50:18 AM 51.4167 -118.7833 51° Northeast 450 518 41,000  Level Vancouver Center
Sun 11:51:18 AM 51.5000 -118.6167 64° Northeast 450 518 41,000  Level Vancouver Center
Sun 11:52:18 AM 51.5500 -118.4500 51° Northeast 450 518 41,000  Level Vancouver Center
Sun 11:53:18 AM 51.6333 -118.2833 62° Northeast 450 518 41,000  Level Vancouver Center
Sun 11:54:18 AM 51.6833 -118.1333 56° Northeast 450 518 41,000  Level Vancouver Center
Sun 11:55:18 AM 51.7667 -117.9333 51° Northeast 450 518 41,000  Level Vancouver Center
Sun 11:56:18 AM 51.8333 -117.8000 59° Northeast 450 518 41,000  Level Vancouver Center
Sun 11:57:18 AM 51.9000 -117.6167 46° Northeast 440 506 41,000  Level Vancouver Center
Sun 11:58:14 AM 51.9500 -117.5333 64° Northeast 440 506 41,000  Level Edmonton Center
Sun 11:59:14 AM 52.0000 -117.3667 53° Northeast 440 506 41,000  Level Edmonton Center
Sun 12:00:14 PM 52.0833 -117.1833 57° Northeast 440 506 41,000  Level Edmonton Center
Sun 12:01:14 PM 52.1500 -117.0167 60° Northeast 450 518 41,000  Level Edmonton Center
Sun 12:02:18 PM 52.2333 -116.7833 61° Northeast 450 518 41,000  Level Vancouver Center
Sun 12:03:18 PM 52.3000 -116.5833 53° Northeast 450 518 41,000 -100 Level Vancouver Center
Sun 12:04:18 PM 52.3833 -116.4000 64° Northeast 460 529 40,800 -1,400 Descending Vancouver Center
Sun 12:05:18 PM 52.4333 -116.2333 31° Northeast 460 529 38,200 -2,431 Descending Vancouver Center
Sun 12:06:14 PM 52.5000 -116.1667 66° East 450 518 36,100 -2,172 Descending Edmonton Center
Sun 12:07:14 PM 52.5500 -115.9833 54° Northeast 430 495 34,000 -2,050 Descending Edmonton Center
Sun 12:08:14 PM 52.6167 -115.8333 59° Northeast 410 472 32,000 -2,050 Descending Edmonton Center
Sun 12:09:14 PM 52.6833 -115.6500 68° East 390 449 29,900 -2,000 Descending Edmonton Center
Sun 12:10:14 PM 52.7167 -115.5167 61° Northeast 380 437 28,000 -1,950 Descending Edmonton Center
Sun 12:11:14 PM 52.7667 -115.3667 50° Northeast 360 414 26,000 -1,850 Descending Edmonton Center
Sun 12:12:14 PM 52.8333 -115.2333 58° Northeast 350 403 24,300 -1,750 Descending Edmonton Center
Sun 12:13:14 PM 52.8833 -115.1000 61° Northeast 350 403 22,500 -1,850 Descending Edmonton Center
Sun 12:14:14 PM 52.9333 -114.9500 58° Northeast 340 391 20,600 -1,750 Descending Edmonton Center
Sun 12:15:14 PM 52.9833 -114.8167 78° East 330 380 19,000 -2,300 Descending Edmonton Center
Sun 12:16:14 PM 53.0000 -114.6833 72° East 330 380 16,000 -2,200 Descending Edmonton Center
Sun 12:17:14 PM 53.0333 -114.5167 80° East 350 403 14,600 -1,550 Descending Edmonton Center
Sun 12:18:14 PM 53.0500 -114.3500 78° East 330 380 12,900 -1,450 Descending Edmonton Center
Sun 12:19:14 PM 53.0667 -114.2167 90° East 310 357 11,700 -1,600 Descending Edmonton Center
Sun 12:20:14 PM 53.0667 -114.1000 67° East 280 322 9,700 -1,500 Descending Edmonton Center
Sun 12:21:14 PM 53.1000 -113.9667 90° East 280 322 8,700 -1,050 Descending Edmonton Center
Sun 12:22:14 PM 53.1000 -113.8500 74° East 270 311 7,600 -900 Descending Edmonton Center
Sun 12:23:14 PM 53.1167 -113.7500 90° East 250 288 6,900 -550 Descending Edmonton Center
Sun 12:24:14 PM 53.1167 -113.6333 56° Northeast 210 242 6,500 -700 Descending Edmonton Center
Sun 12:25:14 PM 53.1500 -113.5500 61° Northeast 190 219 5,500 -1,000 Descending Edmonton Center
Sun 12:26:14 PM 53.1667 -113.5000 349° North 170 196 4,500 -900 Descending Edmonton Center
Sun 12:27:14 PM 53.2167 -113.5167 329° Northwest 140 161 3,700 -700 Descending Edmonton Center
Sun 12:28:14 PM 53.2333 -113.5333 318° Northwest 130 150 3,100 -650 Descending Edmonton Center
Sun 12:29:14 PM 53.2667 -113.5833 318° Northwest 130 150 2,400 -700 Descending Edmonton Center

Login

Don't have an account? Register now (free) for customized features, flight alerts, and more!